createdAt,value
2022-10-19T00:01:02.396Z,101656.41
2022-10-19T00:03:30.600Z,101652.38
2022-10-19T00:05:58.754Z,101648.69
2022-10-19T00:08:27.071Z,101652.38
2022-10-19T00:10:55.200Z,101645.34
2022-10-19T00:13:24.551Z,101656.72
2022-10-19T00:15:52.540Z,101664.09
2022-10-19T00:18:20.705Z,101660.41
2022-10-19T00:20:48.585Z,101659.41
2022-10-19T00:23:16.807Z,101656.03
2022-10-19T00:25:44.674Z,101651.22
2022-10-19T00:28:12.536Z,101658.09
2022-10-19T00:30:41.983Z,101643.16
2022-10-19T00:33:10.148Z,101640.97
2022-10-19T00:35:41.764Z,101650.34
2022-10-19T00:38:09.772Z,101646.81
2022-10-19T00:40:39.240Z,101648.34
2022-10-19T00:43:11.039Z,101651.81
2022-10-19T00:45:39.040Z,101640.94
2022-10-19T00:48:09.257Z,101641.63
2022-10-19T00:50:39.654Z,101649.13
2022-10-19T00:53:07.536Z,101635.09
2022-10-19T00:55:35.731Z,101638.38
2022-10-19T00:58:04.355Z,101639.91
2022-10-19T01:00:33.836Z,101638.22
2022-10-19T01:03:02.760Z,101637.56
2022-10-19T01:05:33.489Z,101637.88
2022-10-19T01:08:01.815Z,101631.69
2022-10-19T01:10:37.096Z,101627.78
2022-10-19T01:13:20.020Z,101630.47
2022-10-19T01:15:57.058Z,101628.63
2022-10-19T01:18:35.675Z,101623.97
2022-10-19T01:21:22.281Z,101609.09
2022-10-19T01:24:15.862Z,101611.78
2022-10-19T01:27:28.079Z,101612.13
2022-10-19T01:30:12.407Z,101610.59
2022-10-19T01:32:59.253Z,101613.78
2022-10-19T01:35:34.110Z,101616.81
2022-10-19T01:38:22.261Z,101603.25
2022-10-19T01:40:59.218Z,101591.38
2022-10-19T01:43:37.014Z,101598.41
2022-10-19T01:46:12.796Z,101599.41
2022-10-19T01:48:44.026Z,101593.06
2022-10-19T01:51:17.283Z,101599.91
2022-10-19T01:53:48.686Z,101595.56
2022-10-19T01:56:19.346Z,101594.75
2022-10-19T01:58:48.414Z,101592.38
2022-10-19T02:01:20.790Z,101580.97
2022-10-19T02:03:49.166Z,101584.34
2022-10-19T02:06:17.197Z,101572.94
2022-10-19T02:08:47.233Z,101591.69
2022-10-19T02:11:15.581Z,101581.66
2022-10-19T02:13:44.921Z,101583.16
2022-10-19T02:16:20.088Z,101579.28
2022-10-19T02:18:51.620Z,101579.28
2022-10-19T02:21:19.962Z,101586.00
2022-10-19T02:23:49.351Z,101586.00
2022-10-19T02:26:19.974Z,101582.34
2022-10-19T02:28:47.970Z,101583.34
2022-10-19T02:31:18.474Z,101580.66
2022-10-19T02:33:46.363Z,101589.84
2022-10-19T02:36:14.127Z,101586.00
2022-10-19T02:38:42.559Z,101584.00
2022-10-19T02:41:17.136Z,101574.44
2022-10-19T02:43:59.133Z,101573.44
2022-10-19T02:46:33.485Z,101568.78
2022-10-19T02:49:03.697Z,101570.41
2022-10-19T02:51:34.043Z,101574.94
2022-10-19T02:54:04.280Z,101574.94
2022-10-19T02:56:33.590Z,101570.63
2022-10-19T02:59:01.437Z,101574.28
2022-10-19T03:01:30.380Z,101571.94
2022-10-19T03:03:58.032Z,101575.78
2022-10-19T03:06:25.786Z,101572.25
2022-10-19T03:08:53.434Z,101569.56
2022-10-19T03:11:21.077Z,101560.19
2022-10-19T03:13:48.674Z,101563.88
2022-10-19T03:16:16.283Z,101561.88
2022-10-19T03:18:45.347Z,101563.22
2022-10-19T03:21:14.349Z,101553.84
2022-10-19T03:23:42.429Z,101556.00
2022-10-19T03:26:13.082Z,101554.00
2022-10-19T03:28:40.989Z,101551.97
2022-10-19T03:31:10.509Z,101550.78
2022-10-19T03:33:38.148Z,101546.44
2022-10-19T03:36:19.633Z,101546.44
2022-10-19T03:38:47.551Z,101546.63
2022-10-19T03:41:15.137Z,101549.31
2022-10-19T03:43:42.784Z,101547.63
2022-10-19T03:46:10.854Z,101546.78
2022-10-19T03:48:38.690Z,101546.44
2022-10-19T03:51:08.827Z,101550.78
2022-10-19T03:53:38.230Z,101547.47
2022-10-19T03:56:07.193Z,101548.31
2022-10-19T03:58:37.166Z,101543.94
2022-10-19T04:01:09.504Z,101552.13
2022-10-19T04:03:37.290Z,101548.78
2022-10-19T04:06:07.120Z,101562.34
2022-10-19T04:08:35.364Z,101559.81
2022-10-19T04:11:06.092Z,101556.97
2022-10-19T04:13:35.198Z,101565.16
2022-10-19T04:16:02.935Z,101559.16
2022-10-19T04:18:30.579Z,101562.34
2022-10-19T04:20:58.826Z,101570.06
2022-10-19T04:23:28.444Z,101567.53
2022-10-19T04:26:00.687Z,101568.22
2022-10-19T04:28:29.973Z,101568.53
2022-10-19T04:30:57.950Z,101573.72
2022-10-19T04:33:25.640Z,101564.84
2022-10-19T04:35:59.086Z,101573.56
2022-10-19T04:38:26.910Z,101573.56
2022-10-19T04:40:54.489Z,101574.41
2022-10-19T04:43:22.103Z,101564.69
2022-10-19T04:45:51.143Z,101575.56
2022-10-19T04:48:19.015Z,101573.22
2022-10-19T04:50:46.730Z,101564.53
2022-10-19T04:53:14.397Z,101559.31
2022-10-19T04:55:42.532Z,101555.28
2022-10-19T04:58:10.253Z,101557.78
2022-10-19T05:00:39.050Z,101553.13
2022-10-19T05:03:08.158Z,101546.91
2022-10-19T05:05:36.516Z,101542.72
2022-10-19T05:08:04.290Z,101540.19
2022-10-19T05:10:32.342Z,101530.31
2022-10-19T05:13:02.158Z,101528.63
2022-10-19T05:15:29.844Z,101530.31
2022-10-19T05:17:57.667Z,101526.16
2022-10-19T05:20:27.234Z,101530.16
2022-10-19T05:22:54.804Z,101530.31
2022-10-19T05:25:22.522Z,101528.47
2022-10-19T05:28:00.915Z,101535.66
2022-10-19T05:30:28.570Z,101534.66
2022-10-19T05:32:56.183Z,101540.03
2022-10-19T05:35:23.798Z,101531.31
2022-10-19T05:37:56.647Z,101533.13
2022-10-19T05:40:24.236Z,101532.81
2022-10-19T05:42:51.823Z,101531.13
2022-10-19T05:45:19.458Z,101548.03
2022-10-19T05:47:47.175Z,101538.00
2022-10-19T05:50:14.778Z,101537.84
2022-10-19T05:52:42.427Z,101531.28
2022-10-19T05:55:11.808Z,101535.78
2022-10-19T05:57:39.519Z,101530.28
2022-10-19T06:00:08.054Z,101527.25
2022-10-19T06:02:35.734Z,101540.50
2022-10-19T06:05:03.545Z,101532.63
2022-10-19T06:07:31.218Z,101527.09
2022-10-19T06:09:58.874Z,101534.31
2022-10-19T06:12:27.809Z,101524.75
2022-10-19T06:14:55.458Z,101530.25
2022-10-19T06:17:23.163Z,101540.97
2022-10-19T06:19:50.772Z,101539.75
2022-10-19T06:22:18.875Z,101540.63
2022-10-19T06:24:46.535Z,101533.56
2022-10-19T06:27:14.236Z,101536.38
2022-10-19T06:29:43.312Z,101533.34
2022-10-19T06:32:10.996Z,101532.84
2022-10-19T06:34:38.651Z,101526.13
2022-10-19T06:37:06.287Z,101541.03
2022-10-19T06:39:33.973Z,101537.50
2022-10-19T06:42:01.695Z,101538.34
2022-10-19T06:44:29.376Z,101538.50
2022-10-19T06:46:58.538Z,101548.91
2022-10-19T06:49:26.195Z,101548.78
2022-10-19T06:51:53.919Z,101541.97
2022-10-19T06:54:21.654Z,101549.53
2022-10-19T06:59:18.218Z,101549.41
2022-10-19T07:01:46.149Z,101549.59
2022-10-19T07:04:15.273Z,101547.09
2022-10-19T07:06:43.006Z,101550.28
2022-10-19T07:09:10.744Z,101548.09
2022-10-19T07:11:42.427Z,101548.63
2022-10-19T07:14:13.871Z,101550.78
2022-10-19T07:16:41.804Z,101550.31
2022-10-19T07:19:09.548Z,101554.97
2022-10-19T07:21:41.610Z,101564.69
2022-10-19T07:24:09.455Z,101560.88
2022-10-19T07:26:37.176Z,101565.53
2022-10-19T07:29:05.697Z,101564.53
2022-10-19T07:31:33.681Z,101570.91
2022-10-19T07:34:02.680Z,101579.25
2022-10-19T07:36:33.138Z,101572.56
2022-10-19T07:39:03.211Z,101569.22
2022-10-19T07:41:30.793Z,101571.09
2022-10-19T07:43:58.716Z,101570.94
2022-10-19T07:46:29.525Z,101560.91
2022-10-19T07:48:57.183Z,101561.75
2022-10-19T07:51:24.901Z,101566.28
2022-10-19T07:53:52.770Z,101566.28
2022-10-19T07:56:23.806Z,101571.50
2022-10-19T07:58:53.601Z,101565.81
2022-10-19T08:01:23.520Z,101577.03
2022-10-19T08:06:40.871Z,101572.84
2022-10-19T08:09:08.660Z,101572.31
2022-10-19T08:11:37.602Z,101571.31
2022-10-19T08:14:05.271Z,101563.94
2022-10-19T08:16:36.361Z,101565.63
2022-10-19T08:19:07.040Z,101566.28
2022-10-19T08:21:35.330Z,101564.28
2022-10-19T08:24:03.027Z,101558.22
2022-10-19T08:26:31.782Z,101559.59
2022-10-19T08:29:05.350Z,101558.91
2022-10-19T08:31:33.477Z,101558.91
2022-10-19T08:34:01.182Z,101554.53
2022-10-19T08:36:31.257Z,101562.56
2022-10-19T08:38:59.380Z,101553.25
2022-10-19T08:41:34.580Z,101555.53
2022-10-19T08:44:28.654Z,101552.91
2022-10-19T08:47:06.118Z,101543.19
2022-10-19T08:49:35.609Z,101550.53
2022-10-19T08:52:08.347Z,101547.09
2022-10-19T08:54:42.322Z,101544.19
2022-10-19T08:57:24.299Z,101540.94
2022-10-19T09:00:00.847Z,101528.50
2022-10-19T09:02:42.034Z,101538.53
2022-10-19T09:05:21.565Z,101535.75
2022-10-19T09:07:52.631Z,101531.78
2022-10-19T09:10:25.673Z,101533.59
2022-10-19T09:12:58.973Z,101524.75
2022-10-19T09:15:34.435Z,101524.53
2022-10-19T09:18:02.505Z,101538.97
2022-10-19T09:20:38.273Z,101536.69
2022-10-19T09:23:21.087Z,101536.75
2022-10-19T09:25:50.771Z,101539.22
2022-10-19T09:28:38.789Z,101532.66
2022-10-19T09:31:15.743Z,101538.34
2022-10-19T09:33:49.184Z,101537.63
2022-10-19T09:36:22.543Z,101530.19
2022-10-19T09:38:51.478Z,101532.41
2022-10-19T09:41:21.848Z,101535.19
2022-10-19T09:43:54.421Z,101529.78
2022-10-19T09:46:31.855Z,101529.53
2022-10-19T09:49:02.325Z,101522.38
2022-10-19T09:51:40.733Z,101538.22
2022-10-19T09:54:25.227Z,101531.91
2022-10-19T09:56:57.238Z,101529.25
2022-10-19T09:59:29.301Z,101518.88
2022-10-19T10:02:16.963Z,101527.47
2022-10-19T10:04:47.457Z,101521.97
2022-10-19T10:07:18.239Z,101520.94
2022-10-19T10:09:46.630Z,101522.81
2022-10-19T10:12:17.020Z,101525.16
2022-10-19T10:14:45.894Z,101527.38
2022-10-19T10:17:19.112Z,101529.56
2022-10-19T10:20:05.706Z,101527.03
2022-10-19T10:22:36.638Z,101527.03
2022-10-19T10:25:19.086Z,101526.22
2022-10-19T10:27:56.018Z,101524.88
2022-10-19T10:30:23.696Z,101522.84
2022-10-19T10:32:55.036Z,101524.19
2022-10-19T10:35:26.488Z,101523.47
2022-10-19T10:38:04.047Z,101527.84
2022-10-19T10:40:32.690Z,101519.78
2022-10-19T10:43:07.314Z,101520.63
2022-10-19T10:45:39.952Z,101523.13
2022-10-19T10:48:22.349Z,101519.94
2022-10-19T10:50:52.012Z,101517.06
2022-10-19T10:53:35.742Z,101517.72
2022-10-19T10:56:04.207Z,101515.03
2022-10-19T10:58:43.269Z,101509.66
2022-10-19T11:01:20.315Z,101501.44
2022-10-19T11:03:55.311Z,101502.22
2022-10-19T11:06:26.243Z,101496.66
2022-10-19T11:09:04.357Z,101504.56
2022-10-19T11:11:37.609Z,101497.50
2022-10-19T11:14:23.105Z,101497.00
2022-10-19T11:16:53.788Z,101494.69
2022-10-19T11:19:27.758Z,101487.47
2022-10-19T11:22:03.354Z,101485.81
2022-10-19T11:24:42.717Z,101475.69
2022-10-19T11:27:24.736Z,101465.09
2022-10-19T11:30:04.048Z,101459.47
2022-10-19T11:32:42.256Z,101446.84
2022-10-19T11:35:25.228Z,101453.06
2022-10-19T11:38:18.724Z,101436.09
2022-10-19T11:43:54.550Z,101430.13
2022-10-19T11:46:27.286Z,101423.75
2022-10-19T11:49:16.969Z,101417.69
2022-10-19T11:51:57.312Z,101417.78
2022-10-19T11:54:38.274Z,101411.00
2022-10-19T11:57:13.590Z,101415.03
2022-10-19T12:00:13.900Z,101413.69
2022-10-19T12:03:04.649Z,101409.97
2022-10-19T12:05:38.743Z,101404.31
2022-10-19T12:08:22.573Z,101407.28
2022-10-19T12:10:58.245Z,101408.19
2022-10-19T12:13:33.068Z,101402.88
2022-10-19T12:16:01.412Z,101408.63
2022-10-19T12:18:35.065Z,101403.06
2022-10-19T12:21:05.941Z,101398.34
2022-10-19T12:23:38.364Z,101394.66
2022-10-19T12:26:09.001Z,101394.00
2022-10-19T12:28:39.778Z,101391.75
2022-10-19T12:31:10.356Z,101388.06
2022-10-19T12:33:47.402Z,101386.84
2022-10-19T12:36:33.807Z,101390.03
2022-10-19T12:39:13.817Z,101378.78
2022-10-19T12:41:46.920Z,101375.63
2022-10-19T12:44:35.042Z,101370.63
2022-10-19T12:47:11.515Z,101370.81
2022-10-19T12:49:45.911Z,101362.91
2022-10-19T12:52:14.908Z,101359.56
2022-10-19T12:54:45.148Z,101352.72
2022-10-19T12:57:27.613Z,101346.50
2022-10-19T13:00:05.926Z,101341.31
2022-10-19T13:02:36.387Z,101336.94
2022-10-19T13:05:05.363Z,101333.44
2022-10-19T13:07:36.971Z,101336.94
2022-10-19T13:10:19.310Z,101320.81
2022-10-19T13:12:48.371Z,101321.66
2022-10-19T13:15:52.019Z,101324.34
2022-10-19T13:19:08.233Z,101308.66
2022-10-19T13:21:55.558Z,101309.34
2022-10-19T13:24:35.676Z,101298.03
2022-10-19T13:27:26.891Z,101291.06
2022-10-19T13:29:54.940Z,101291.38
2022-10-19T13:32:44.212Z,101297.09
2022-10-19T13:35:33.173Z,101283.22
2022-10-19T13:38:26.266Z,101285.59
2022-10-19T13:41:02.218Z,101288.22
2022-10-19T13:43:33.699Z,101289.22
2022-10-19T13:46:12.542Z,101278.19
2022-10-19T13:49:03.974Z,101282.09
2022-10-19T13:51:38.639Z,101279.31
2022-10-19T13:54:21.511Z,101275.97
2022-10-19T13:57:12.102Z,101285.88
2022-10-19T14:00:10.579Z,101274.38
2022-10-19T14:03:11.751Z,101274.72
2022-10-19T14:06:04.693Z,101275.56
2022-10-19T14:08:52.963Z,101282.13
2022-10-19T14:11:25.414Z,101269.75
2022-10-19T14:14:13.560Z,101271.78
2022-10-19T14:16:52.392Z,101262.69
2022-10-19T14:19:27.846Z,101266.00
2022-10-19T14:21:57.450Z,101268.91
2022-10-19T14:24:31.230Z,101268.41
2022-10-19T14:27:01.449Z,101267.75
2022-10-19T14:29:29.469Z,101258.59
2022-10-19T14:32:00.589Z,101256.06
2022-10-19T14:34:28.218Z,101254.13
2022-10-19T14:36:56.049Z,101247.09
2022-10-19T14:39:27.963Z,101246.06
2022-10-19T14:42:00.451Z,101243.00
2022-10-19T14:44:40.018Z,101238.00
2022-10-19T14:47:22.277Z,101248.09
2022-10-19T14:49:50.692Z,101243.91
2022-10-19T14:55:08.190Z,101250.56
2022-10-19T14:57:38.672Z,101252.56
2022-10-19T15:00:10.143Z,101243.19
2022-10-19T15:02:44.286Z,101239.84
2022-10-19T15:05:21.283Z,101242.25
2022-10-19T15:07:54.669Z,101240.59
2022-10-19T15:10:25.489Z,101238.25
2022-10-19T15:12:58.716Z,101230.56
2022-10-19T15:15:28.830Z,101230.75
2022-10-19T15:18:04.391Z,101232.59
2022-10-19T15:20:43.905Z,101226.75
2022-10-19T15:23:36.273Z,101226.56
2022-10-19T15:26:17.216Z,101218.88
2022-10-19T15:28:45.616Z,101221.75
2022-10-19T15:31:19.354Z,101225.63
2022-10-19T15:33:51.253Z,101219.91
2022-10-19T15:36:21.204Z,101204.81
2022-10-19T15:38:50.440Z,101204.50
2022-10-19T15:41:21.345Z,101203.66
2022-10-19T15:43:52.099Z,101209.28
2022-10-19T15:46:30.929Z,101211.16
2022-10-19T15:49:02.126Z,101206.84
2022-10-19T15:51:48.320Z,101204.34
2022-10-19T15:54:18.983Z,101203.66
2022-10-19T15:56:48.306Z,101205.69
2022-10-19T15:59:18.064Z,101196.69
2022-10-19T16:01:51.112Z,101189.38
2022-10-19T16:04:24.152Z,101195.25
2022-10-19T16:06:51.843Z,101197.09
2022-10-19T16:09:20.958Z,101199.81
2022-10-19T16:11:49.045Z,101209.41
2022-10-19T16:16:51.051Z,101208.53
2022-10-19T16:19:18.746Z,101207.22
2022-10-19T16:21:50.293Z,101206.44
2022-10-19T16:24:18.195Z,101196.59
2022-10-19T16:26:45.793Z,101208.50
2022-10-19T16:29:13.431Z,101207.69
2022-10-19T16:31:41.033Z,101201.66
2022-10-19T16:34:08.677Z,101199.63
2022-10-19T16:36:36.262Z,101205.00
2022-10-19T16:39:05.439Z,101202.31
2022-10-19T16:41:33.195Z,101190.94
2022-10-19T16:44:00.840Z,101190.25
2022-10-19T16:46:28.589Z,101194.59
2022-10-19T16:48:56.335Z,101194.47
2022-10-19T16:51:35.403Z,101190.97
2022-10-19T16:54:03.983Z,101191.31
2022-10-19T16:56:34.019Z,101191.00
2022-10-19T16:59:03.603Z,101191.34
2022-10-19T17:01:32.471Z,101201.41
2022-10-19T17:04:00.920Z,101207.81
2022-10-19T17:06:29.448Z,101207.13
2022-10-19T17:11:47.350Z,101197.78
2022-10-19T17:14:14.907Z,101194.97
2022-10-19T17:16:42.631Z,101191.94
2022-10-19T17:19:11.729Z,101189.09
2022-10-19T17:21:41.983Z,101189.75
2022-10-19T17:24:20.218Z,101192.75
2022-10-19T17:26:51.716Z,101190.44
2022-10-19T17:29:20.326Z,101193.13
2022-10-19T17:31:48.060Z,101192.28
2022-10-19T17:34:15.987Z,101188.59
2022-10-19T17:36:45.667Z,101191.44
2022-10-19T17:39:17.395Z,101191.63
2022-10-19T17:41:45.717Z,101186.13
2022-10-19T17:44:15.417Z,101193.00
2022-10-19T17:46:43.686Z,101199.53
2022-10-19T17:49:11.623Z,101200.16
2022-10-19T17:51:39.629Z,101200.53
2022-10-19T17:54:10.994Z,101202.84
2022-10-19T17:56:40.086Z,101208.56
2022-10-19T17:59:10.396Z,101199.84
2022-10-19T18:01:39.342Z,101201.84
2022-10-19T18:04:07.187Z,101205.69
2022-10-19T18:06:37.940Z,101203.69
2022-10-19T18:09:08.336Z,101193.13
2022-10-19T18:11:38.601Z,101201.19
2022-10-19T18:14:12.359Z,101198.34
2022-10-19T18:16:44.600Z,101200.69
2022-10-19T18:19:12.617Z,101203.53
2022-10-19T18:21:45.189Z,101201.19
2022-10-19T18:24:16.710Z,101196.81
2022-10-19T18:26:44.546Z,101190.00
2022-10-19T18:29:14.167Z,101191.84
2022-10-19T18:31:43.307Z,101186.78
2022-10-19T18:34:14.905Z,101180.59
2022-10-19T18:36:42.907Z,101176.78
2022-10-19T18:39:11.782Z,101171.41
2022-10-19T18:41:40.453Z,101167.38
2022-10-19T18:44:08.858Z,101167.41
2022-10-19T18:46:38.062Z,101173.13
2022-10-19T18:49:08.656Z,101167.25
2022-10-19T18:51:37.131Z,101174.78
2022-10-19T18:54:05.276Z,101157.69
2022-10-19T18:56:36.391Z,101167.41
2022-10-19T18:59:04.191Z,101172.59
2022-10-19T19:01:32.220Z,101167.06
2022-10-19T19:04:07.987Z,101170.25
2022-10-19T19:06:36.378Z,101175.09
2022-10-19T19:09:07.554Z,101167.38
2022-10-19T19:11:38.119Z,101149.31
2022-10-19T19:14:08.626Z,101148.47
2022-10-19T19:16:38.729Z,101141.13
2022-10-19T19:19:08.419Z,101146.47
2022-10-19T19:21:37.341Z,101153.00
2022-10-19T19:24:08.158Z,101157.88
2022-10-19T19:26:41.134Z,101150.00
2022-10-19T19:29:11.352Z,101148.66
2022-10-19T19:31:39.269Z,101145.00
2022-10-19T19:34:12.785Z,101144.31
2022-10-19T19:36:48.352Z,101148.66
2022-10-19T19:39:20.284Z,101148.66
2022-10-19T19:41:48.533Z,101143.97
2022-10-19T19:44:18.639Z,101141.63
2022-10-19T19:46:46.394Z,101131.28
2022-10-19T19:49:16.702Z,101131.28
2022-10-19T19:51:44.299Z,101134.28
2022-10-19T19:54:12.191Z,101127.59
2022-10-19T19:56:40.106Z,101109.19
2022-10-19T19:59:07.693Z,101118.06
2022-10-19T20:01:37.224Z,101119.59
2022-10-19T20:04:05.585Z,101123.91
2022-10-19T20:06:40.574Z,101121.59
2022-10-19T20:09:10.539Z,101127.28
2022-10-19T20:11:42.869Z,101123.44
2022-10-19T20:14:12.971Z,101123.59
2022-10-19T20:16:40.671Z,101124.28
2022-10-19T20:19:10.186Z,101120.41
2022-10-19T20:21:40.013Z,101117.59
2022-10-19T20:24:13.871Z,101120.94
2022-10-19T20:26:41.483Z,101120.59
2022-10-19T20:29:15.072Z,101122.44
2022-10-19T20:31:42.713Z,101121.59
2022-10-19T20:34:13.835Z,101122.25
2022-10-19T20:36:45.343Z,101120.94
2022-10-19T20:39:13.023Z,101121.25
2022-10-19T20:41:44.343Z,101123.09
2022-10-19T20:44:15.984Z,101123.63
2022-10-19T20:46:43.604Z,101112.56
2022-10-19T20:49:16.115Z,101110.41
2022-10-19T20:51:46.280Z,101108.88
2022-10-19T20:54:14.719Z,101109.56
2022-10-19T20:56:43.105Z,101107.88
2022-10-19T20:59:14.349Z,101112.72
2022-10-19T21:01:43.590Z,101103.03
2022-10-19T21:04:13.638Z,101107.53
2022-10-19T21:06:42.989Z,101096.03
2022-10-19T21:09:13.022Z,101102.69
2022-10-19T21:11:42.339Z,101107.06
2022-10-19T21:14:13.819Z,101102.22
2022-10-19T21:16:41.957Z,101096.03
2022-10-19T21:19:12.759Z,101101.69
2022-10-19T21:21:42.365Z,101098.50
2022-10-19T21:24:14.781Z,101105.88
2022-10-19T21:26:42.818Z,101098.44
2022-10-19T21:29:12.154Z,101092.78
2022-10-19T21:31:43.091Z,101095.78
2022-10-19T21:34:14.444Z,101088.81
2022-10-19T21:36:42.105Z,101085.66
2022-10-19T21:39:10.100Z,101079.44
2022-10-19T21:41:39.323Z,101079.22
2022-10-19T21:44:07.113Z,101065.22
2022-10-19T21:46:34.742Z,101065.22
2022-10-19T21:49:02.795Z,101069.38
2022-10-19T21:51:35.817Z,101075.22
2022-10-19T21:54:04.306Z,101068.06
2022-10-19T21:56:32.583Z,101064.72
2022-10-19T21:59:01.618Z,101070.56
2022-10-19T22:01:30.808Z,101065.72
2022-10-19T22:03:58.991Z,101059.38
2022-10-19T22:06:28.158Z,101059.53
2022-10-19T22:08:56.457Z,101056.84
2022-10-19T22:11:25.515Z,101050.66
2022-10-19T22:13:55.239Z,101051.50
2022-10-19T22:16:25.130Z,101044.69
2022-10-19T22:18:53.267Z,101051.19
2022-10-19T22:21:23.121Z,101048.69
2022-10-19T22:23:55.271Z,101047.50
2022-10-19T22:26:24.666Z,101040.81
2022-10-19T22:28:52.452Z,101038.00
2022-10-19T22:31:20.402Z,101034.16
2022-10-19T22:33:49.343Z,101034.84
2022-10-19T22:36:17.083Z,101029.28
2022-10-19T22:38:44.757Z,101020.94
2022-10-19T22:41:12.350Z,101024.94
2022-10-19T22:43:39.977Z,101029.13
2022-10-19T22:46:07.607Z,101021.28
2022-10-19T22:48:35.189Z,101013.94
2022-10-19T22:51:04.265Z,101003.91
2022-10-19T22:53:31.874Z,100997.91
2022-10-19T22:55:59.507Z,100992.88
2022-10-19T22:58:27.079Z,100993.91
2022-10-19T23:01:03.680Z,100983.53
2022-10-19T23:03:31.284Z,100978.50
2022-10-19T23:05:58.963Z,100975.19
2022-10-19T23:08:28.051Z,100966.00
2022-10-19T23:10:55.652Z,100973.34
2022-10-19T23:13:23.506Z,100983.69
2022-10-19T23:15:51.535Z,100977.84
2022-10-19T23:18:19.140Z,100962.84
2022-10-19T23:20:54.064Z,100967.34
2022-10-19T23:23:21.748Z,100971.16
2022-10-19T23:26:00.358Z,100961.94
2022-10-19T23:28:28.139Z,100964.47
2022-10-19T23:30:57.160Z,100959.47
2022-10-19T23:33:25.269Z,100965.16
2022-10-19T23:35:53.078Z,100965.81
2022-10-19T23:38:20.735Z,100954.97
2022-10-19T23:40:48.390Z,100958.47
2022-10-19T23:43:17.318Z,100957.63
2022-10-19T23:45:46.213Z,100949.63
2022-10-19T23:48:13.818Z,100962.63
2022-10-19T23:50:41.396Z,100945.06
2022-10-19T23:53:08.980Z,100944.41
2022-10-19T23:55:36.550Z,100943.91
2022-10-19T23:58:04.151Z,100940.25
